Time;durP1;ratioP1;P1;durP2;ratioP2;P2;SDS_P1;SDS_P2;PMS_P1;PMS_P2;Temp;Humidity;BMP_temperature;BMP_pressure;BME280_temperature;BME280_humidity;BME280_pressure;Samples;Min_cycle;Max_cycle;Signal;HPM_P1;HPM_P2
2023/03/06 00:00:17;;;;;;;40.07;23.70;;;2.00;99.90;;;;;;5074054;28;20199;-48
2023/03/06 00:02:48;;;;;;;42.07;21.30;;;2.00;99.90;;;;;;5073241;28;20198;-49
2023/03/06 00:05:16;;;;;;;39.30;21.07;;;2.00;99.90;;;;;;5074077;28;20580;-47
2023/03/06 00:07:44;;;;;;;37.57;21.07;;;2.10;99.90;;;;;;5072902;28;20264;-48
2023/03/06 00:10:15;;;;;;;45.47;22.83;;;2.10;99.90;;;;;;5061900;28;20198;-49
2023/03/06 00:12:42;;;;;;;45.90;22.47;;;2.00;99.90;;;;;;5073118;28;20738;-47
2023/03/06 00:15:09;;;;;;;41.97;21.20;;;2.00;99.90;;;;;;5068708;28;20635;-48
2023/03/06 00:17:37;;;;;;;37.33;21.03;;;2.00;99.90;;;;;;5070650;28;20203;-48
2023/03/06 00:20:05;;;;;;;37.77;21.23;;;2.00;99.90;;;;;;5068270;28;20273;-49
2023/03/06 00:22:32;;;;;;;35.60;21.00;;;2.00;99.90;;;;;;5061605;28;20195;-48
2023/03/06 00:24:59;;;;;;;40.80;22.40;;;2.00;99.90;;;;;;5064142;28;20661;-48
2023/03/06 00:27:27;;;;;;;36.77;21.27;;;2.00;99.90;;;;;;5073589;28;20198;-48
2023/03/06 00:29:55;;;;;;;41.03;22.33;;;2.00;99.90;;;;;;5070914;28;20214;-48
2023/03/06 00:32:23;;;;;;;39.67;21.27;;;2.00;99.90;;;;;;5073262;28;20223;-48
2023/03/06 00:34:50;;;;;;;36.60;20.83;;;2.00;99.90;;;;;;5065686;28;20253;-47
2023/03/06 00:37:18;;;;;;;40.03;22.87;;;2.00;99.90;;;;;;5071756;28;20576;-48
2023/03/06 00:39:44;;;;;;;37.83;20.93;;;1.90;99.90;;;;;;5067588;28;20344;-48
2023/03/06 00:42:12;;;;;;;40.03;21.70;;;1.90;99.90;;;;;;5073196;28;20198;-49
2023/03/06 00:44:40;;;;;;;37.13;20.53;;;1.90;99.90;;;;;;5073271;28;20199;-50
2023/03/06 00:47:07;;;;;;;41.20;21.97;;;1.90;99.90;;;;;;5064544;28;20203;-49
2023/03/06 00:49:34;;;;;;;37.10;21.10;;;1.80;99.90;;;;;;5072813;28;20290;-48
2023/03/06 00:52:01;;;;;;;38.03;21.30;;;1.70;99.90;;;;;;5073108;28;20223;-48
2023/03/06 00:54:28;;;;;;;39.87;22.73;;;1.70;99.90;;;;;;5064369;28;20198;-47
2023/03/06 00:56:55;;;;;;;34.17;19.07;;;1.70;99.90;;;;;;5072853;28;20260;-47
2023/03/06 00:59:22;;;;;;;45.17;21.33;;;1.70;99.90;;;;;;5068352;28;20239;-48
2023/03/06 01:01:51;;;;;;;40.47;21.60;;;1.60;99.90;;;;;;5071900;28;20194;-47
2023/03/06 01:04:18;;;;;;;38.73;20.43;;;1.50;99.90;;;;;;5073105;28;20201;-48
2023/03/06 01:06:45;;;;;;;36.67;20.47;;;1.50;99.90;;;;;;5071075;28;20201;-48
2023/03/06 01:09:12;;;;;;;39.40;20.80;;;1.50;99.90;;;;;;5066840;28;20219;-48
2023/03/06 01:11:39;;;;;;;44.60;20.27;;;1.40;99.90;;;;;;5063180;28;20270;-49
2023/03/06 01:14:06;;;;;;;41.27;19.43;;;1.30;99.90;;;;;;5063917;28;20260;-48
2023/03/06 01:16:33;;;;;;;39.30;19.33;;;1.30;99.90;;;;;;5067843;28;20207;-48
2023/03/06 01:19:01;;;;;;;35.97;19.30;;;1.30;99.90;;;;;;5072624;28;20267;-49
2023/03/06 01:21:28;;;;;;;35.97;18.10;;;1.30;99.90;;;;;;5064438;28;20203;-48
2023/03/06 01:23:55;;;;;;;38.83;19.90;;;1.30;99.90;;;;;;5071535;28;20237;-48
2023/03/06 01:26:22;;;;;;;41.43;20.07;;;1.20;99.90;;;;;;5071285;28;20202;-49
2023/03/06 01:28:49;;;;;;;39.03;20.00;;;1.20;99.90;;;;;;5070604;28;20222;-48
2023/03/06 01:31:16;;;;;;;38.73;20.40;;;1.20;99.90;;;;;;5072377;28;20220;-47
2023/03/06 01:33:43;;;;;;;47.63;21.20;;;1.20;99.90;;;;;;5072447;28;20207;-46
2023/03/06 01:36:13;;;;;;;43.53;21.90;;;1.20;99.90;;;;;;5051432;28;20738;-48
2023/03/06 01:38:40;;;;;;;38.50;19.80;;;1.20;99.90;;;;;;5069611;28;20213;-49
2023/03/06 01:41:09;;;;;;;43.40;20.13;;;1.10;99.90;;;;;;5071941;28;20194;-47
2023/03/06 01:43:40;;;;;;;42.30;22.27;;;1.10;99.90;;;;;;5070490;28;20576;-48
2023/03/06 01:46:31;;;;;;;39.80;19.83;;;1.10;99.90;;;;;;5070980;28;20212;-47
2023/03/06 01:49:00;;;;;;;33.77;18.77;;;1.20;99.90;;;;;;5061446;28;20248;-48
2023/03/06 01:51:32;;;;;;;38.17;19.10;;;1.20;99.90;;;;;;5071033;28;20642;-47
2023/03/06 01:54:05;;;;;;;40.10;19.90;;;1.20;99.90;;;;;;5052320;28;20204;-48
2023/03/06 01:56:33;;;;;;;40.00;19.77;;;1.20;99.90;;;;;;5060209;28;20205;-49
2023/03/06 01:59:01;;;;;;;37.97;19.93;;;1.10;99.90;;;;;;5065416;28;20597;-47
2023/03/06 02:01:28;;;;;;;40.73;20.70;;;1.10;99.90;;;;;;5069235;28;20277;-49
2023/03/06 02:03:56;;;;;;;40.17;18.57;;;1.00;99.90;;;;;;5067220;28;20202;-48
2023/03/06 02:06:23;;;;;;;35.30;18.07;;;0.90;99.90;;;;;;5071960;28;20251;-47
2023/03/06 02:08:52;;;;;;;34.57;18.77;;;0.90;99.90;;;;;;5071809;28;20864;-47
2023/03/06 02:11:21;;;;;;;38.43;17.77;;;0.90;99.90;;;;;;5066077;28;20211;-48
2023/03/06 02:13:49;;;;;;;40.70;19.80;;;0.90;99.90;;;;;;5067688;28;20200;-47
2023/03/06 02:16:17;;;;;;;28.53;17.10;;;0.90;99.90;;;;;;5067116;28;20198;-47
2023/03/06 02:18:46;;;;;;;40.53;21.50;;;0.90;99.90;;;;;;5070198;28;20226;-47
2023/03/06 02:21:19;;;;;;;36.03;19.17;;;0.90;99.90;;;;;;5069180;28;20665;-50
2023/03/06 02:24:00;;;;;;;42.77;20.20;;;0.90;99.90;;;;;;5068333;28;20204;-48
2023/03/06 02:26:29;;;;;;;41.27;19.67;;;0.90;99.90;;;;;;5064260;28;20206;-47
2023/03/06 02:28:58;;;;;;;39.63;19.80;;;0.80;99.90;;;;;;5075816;28;20242;-47
2023/03/06 02:31:27;;;;;;;37.10;18.20;;;0.90;99.90;;;;;;5072094;28;20245;-47
2023/03/06 02:34:02;;;;;;;36.77;19.33;;;0.90;99.90;;;;;;5071640;28;20668;-47
2023/03/06 02:36:31;;;;;;;39.57;19.23;;;0.90;99.90;;;;;;5066284;28;20209;-48
2023/03/06 02:38:59;;;;;;;35.90;18.10;;;0.90;99.90;;;;;;5067422;28;20765;-48
2023/03/06 02:41:28;;;;;;;42.77;20.57;;;0.90;99.90;;;;;;5074353;28;20203;-48
2023/03/06 02:43:55;;;;;;;39.97;21.00;;;0.80;99.90;;;;;;5068835;28;20202;-48
2023/03/06 02:46:21;;;;;;;33.77;18.10;;;0.80;99.90;;;;;;5075645;28;20198;-48
2023/03/06 02:48:48;;;;;;;38.30;19.00;;;0.70;99.90;;;;;;5062525;28;20247;-46
2023/03/06 02:51:15;;;;;;;37.27;19.80;;;0.70;99.90;;;;;;5070053;28;20190;-48
2023/03/06 02:53:42;;;;;;;40.90;19.27;;;0.70;99.90;;;;;;5075764;28;20424;-48
2023/03/06 02:56:09;;;;;;;40.00;18.30;;;0.60;99.90;;;;;;5076024;28;20679;-48
2023/03/06 02:58:38;;;;;;;43.13;19.40;;;0.50;99.90;;;;;;5063557;28;20228;-49
2023/03/06 03:01:05;;;;;;;37.97;19.33;;;0.50;99.90;;;;;;5073485;28;20276;-48
2023/03/06 03:03:33;;;;;;;39.53;19.73;;;0.50;99.90;;;;;;5072553;28;20247;-48
2023/03/06 03:06:00;;;;;;;43.47;21.07;;;0.50;99.90;;;;;;5063161;28;20205;-48
2023/03/06 03:08:27;;;;;;;36.50;19.00;;;0.60;99.90;;;;;;5075462;28;20219;-48
2023/03/06 03:10:55;;;;;;;38.87;20.93;;;0.60;99.90;;;;;;5075561;28;20208;-47
2023/03/06 03:13:22;;;;;;;42.30;21.17;;;0.60;99.90;;;;;;5070325;28;20300;-48
2023/03/06 03:15:59;;;;;;;41.17;20.77;;;0.60;99.90;;;;;;5065528;28;20649;-49
2023/03/06 03:18:26;;;;;;;40.17;19.63;;;0.60;99.90;;;;;;5070476;28;20222;-49
2023/03/06 03:20:54;;;;;;;38.07;19.53;;;0.60;99.90;;;;;;5071002;28;20254;-47
2023/03/06 03:23:21;;;;;;;39.20;21.03;;;0.60;99.90;;;;;;5070385;28;20828;-49
2023/03/06 03:25:48;;;;;;;34.17;18.40;;;0.60;99.90;;;;;;5074989;28;20194;-48
2023/03/06 03:28:15;;;;;;;39.63;19.57;;;0.50;99.90;;;;;;5068768;28;20243;-47
2023/03/06 03:30:43;;;;;;;42.33;19.70;;;0.50;99.90;;;;;;5067930;28;20199;-48
2023/03/06 03:33:12;;;;;;;38.40;17.60;;;0.50;99.90;;;;;;5066578;28;20843;-47
2023/03/06 03:35:39;;;;;;;40.80;20.87;;;0.50;99.90;;;;;;5083976;28;20221;-47
2023/03/06 03:38:06;;;;;;;38.73;18.00;;;0.50;99.90;;;;;;5075686;28;20272;-49
2023/03/06 03:40:33;;;;;;;39.47;19.77;;;0.50;99.90;;;;;;5068613;28;20648;-48
2023/03/06 03:43:00;;;;;;;36.97;19.17;;;0.50;99.90;;;;;;5064944;28;20195;-47
2023/03/06 03:45:27;;;;;;;40.37;19.03;;;0.50;99.90;;;;;;5074363;28;20237;-49
2023/03/06 03:47:54;;;;;;;42.63;18.90;;;0.60;99.90;;;;;;5066795;28;20232;-47
2023/03/06 03:50:22;;;;;;;36.23;17.27;;;0.50;99.90;;;;;;5073934;28;20208;-48
2023/03/06 03:52:49;;;;;;;44.17;20.03;;;0.50;99.90;;;;;;5070320;28;20263;-47
2023/03/06 03:55:16;;;;;;;34.17;17.57;;;0.50;99.90;;;;;;5063764;28;20200;-49
2023/03/06 03:57:43;;;;;;;41.63;19.10;;;0.40;99.90;;;;;;5072080;28;20249;-48
2023/03/06 04:00:15;;;;;;;37.53;19.33;;;0.40;99.90;;;;;;5073065;28;20194;-48
2023/03/06 04:02:43;;;;;;;40.73;19.53;;;0.40;99.90;;;;;;5073904;28;20204;-48
2023/03/06 04:05:11;;;;;;;42.73;19.03;;;0.30;99.90;;;;;;5069605;28;20201;-48
2023/03/06 04:07:40;;;;;;;38.80;18.67;;;0.30;99.90;;;;;;5073825;28;20194;-50
2023/03/06 04:10:08;;;;;;;36.30;19.33;;;0.30;99.90;;;;;;5061144;28;20247;-48
2023/03/06 04:12:35;;;;;;;43.10;20.10;;;0.20;99.90;;;;;;5073774;28;20213;-48
2023/03/06 04:15:03;;;;;;;41.93;19.70;;;0.20;99.90;;;;;;5073764;28;20229;-48
2023/03/06 04:17:32;;;;;;;40.50;20.37;;;0.20;99.90;;;;;;5067365;28;20233;-48
2023/03/06 04:20:00;;;;;;;39.30;20.20;;;0.30;99.90;;;;;;5064737;28;20299;-46
2023/03/06 04:22:27;;;;;;;43.70;20.90;;;0.30;99.90;;;;;;5071494;28;20225;-47
2023/03/06 04:24:55;;;;;;;39.77;19.83;;;0.20;99.90;;;;;;5061336;28;20267;-47
2023/03/06 04:27:22;;;;;;;36.40;19.40;;;0.20;99.90;;;;;;5069653;28;20204;-49
2023/03/06 04:29:49;;;;;;;44.47;22.80;;;0.20;99.90;;;;;;5070482;28;20234;-47
2023/03/06 04:32:16;;;;;;;46.10;20.40;;;0.20;99.90;;;;;;5067488;28;20218;-48
2023/03/06 04:34:43;;;;;;;40.47;20.70;;;0.20;99.90;;;;;;5069443;28;20250;-46
2023/03/06 04:37:18;;;;;;;34.93;18.43;;;0.20;99.90;;;;;;5074949;28;20203;-47
2023/03/06 04:39:45;;;;;;;44.27;21.20;;;0.20;99.90;;;;;;5056265;28;20270;-49
2023/03/06 04:42:13;;;;;;;35.80;18.87;;;0.20;99.90;;;;;;5069541;28;20287;-48
2023/03/06 04:44:40;;;;;;;35.73;19.73;;;0.20;99.90;;;;;;5062910;28;20201;-47
2023/03/06 04:47:07;;;;;;;39.50;21.07;;;0.30;99.90;;;;;;5063495;28;20202;-47
2023/03/06 04:49:34;;;;;;;41.83;20.37;;;0.30;99.90;;;;;;5069555;28;20279;-47
2023/03/06 04:52:02;;;;;;;40.50;20.10;;;0.30;99.90;;;;;;5069305;28;20225;-47
2023/03/06 04:54:28;;;;;;;38.33;19.03;;;0.20;99.90;;;;;;5069453;28;20627;-49
2023/03/06 04:56:56;;;;;;;38.23;20.10;;;0.20;99.90;;;;;;5064816;28;20260;-47
2023/03/06 04:59:24;;;;;;;38.00;19.27;;;0.30;99.90;;;;;;5052838;28;20306;-49
2023/03/06 05:01:51;;;;;;;36.83;18.53;;;0.30;99.90;;;;;;5059125;28;20199;-48
2023/03/06 05:04:18;;;;;;;32.53;18.13;;;0.30;99.90;;;;;;5059372;28;20670;-48
2023/03/06 05:06:46;;;;;;;42.00;20.40;;;0.30;99.90;;;;;;5062108;28;20202;-48
2023/03/06 05:09:13;;;;;;;41.60;20.40;;;0.30;99.90;;;;;;5071521;28;20221;-47
2023/03/06 05:11:40;;;;;;;43.13;21.03;;;0.40;99.90;;;;;;5062160;28;20208;-48
2023/03/06 05:14:07;;;;;;;41.80;19.67;;;0.30;99.90;;;;;;5062234;28;20283;-48
2023/03/06 05:16:35;;;;;;;40.57;20.87;;;0.30;99.90;;;;;;5062444;28;20214;-48
2023/03/06 05:19:03;;;;;;;43.73;22.23;;;0.30;99.90;;;;;;5070122;28;20277;-47
2023/03/06 05:21:31;;;;;;;43.30;19.80;;;0.30;99.90;;;;;;5069849;28;20203;-46
2023/03/06 05:23:58;;;;;;;40.23;20.77;;;0.30;99.90;;;;;;5066781;28;20673;-47
2023/03/06 05:26:25;;;;;;;42.43;20.50;;;0.30;99.90;;;;;;5072747;28;20622;-47
2023/03/06 05:28:54;;;;;;;38.83;19.37;;;0.40;99.90;;;;;;5071529;28;20318;-49
2023/03/06 05:31:21;;;;;;;43.13;20.60;;;0.40;99.90;;;;;;5068843;28;20204;-47
2023/03/06 05:33:49;;;;;;;43.40;20.57;;;0.40;99.90;;;;;;5064158;28;20236;-49
2023/03/06 05:36:16;;;;;;;50.10;25.10;;;0.40;99.90;;;;;;5069931;28;20199;-47
2023/03/06 05:38:43;;;;;;;47.33;26.70;;;0.40;99.90;;;;;;5066166;28;20225;-47
2023/03/06 05:41:12;;;;;;;42.17;21.93;;;0.40;99.90;;;;;;5071867;28;20255;-48
2023/03/06 05:43:39;;;;;;;38.77;20.57;;;0.40;99.90;;;;;;5072239;28;20202;-47
2023/03/06 05:46:07;;;;;;;42.90;20.30;;;0.40;99.90;;;;;;5068390;28;20203;-47
2023/03/06 05:48:36;;;;;;;43.60;22.80;;;0.50;99.90;;;;;;5069080;28;20715;-49
2023/03/06 05:51:05;;;;;;;46.00;22.33;;;0.50;99.90;;;;;;5067338;28;20241;-48
2023/03/06 05:53:32;;;;;;;48.10;21.10;;;0.50;99.90;;;;;;5071802;28;20243;-48
2023/03/06 05:56:02;;;;;;;39.53;20.70;;;0.60;99.90;;;;;;5067535;28;20610;-48
2023/03/06 05:58:30;;;;;;;39.80;20.17;;;0.60;99.90;;;;;;5071782;28;20229;-48
2023/03/06 06:00:57;;;;;;;44.17;21.40;;;0.60;99.90;;;;;;5051714;28;20199;-48
2023/03/06 06:03:25;;;;;;;41.97;20.53;;;0.60;99.90;;;;;;5052283;28;20202;-48
2023/03/06 06:05:52;;;;;;;43.87;23.47;;;0.60;99.90;;;;;;5056045;28;20208;-48
2023/03/06 06:08:21;;;;;;;44.03;22.97;;;0.70;99.90;;;;;;5051654;28;20223;-48
2023/03/06 06:10:48;;;;;;;44.70;21.43;;;0.70;99.90;;;;;;5069928;28;20203;-48
2023/03/06 06:13:15;;;;;;;46.10;21.33;;;0.70;99.90;;;;;;5071846;28;20230;-47
2023/03/06 06:15:42;;;;;;;53.00;25.77;;;0.70;99.90;;;;;;5071693;28;20244;-49
2023/03/06 06:18:09;;;;;;;46.63;25.27;;;0.70;99.90;;;;;;5071738;28;20218;-47
2023/03/06 06:20:37;;;;;;;45.23;25.87;;;0.70;99.90;;;;;;5069699;28;20258;-48
2023/03/06 06:23:04;;;;;;;47.33;23.17;;;0.70;99.90;;;;;;5057073;28;20204;-47
2023/03/06 06:25:34;;;;;;;49.53;24.10;;;0.70;99.90;;;;;;5071219;28;20287;-48
2023/03/06 06:28:02;;;;;;;49.40;24.40;;;0.70;99.90;;;;;;5069142;28;20223;-47
2023/03/06 06:30:29;;;;;;;54.73;24.77;;;0.80;99.90;;;;;;5070981;28;20714;-47
2023/03/06 06:32:56;;;;;;;53.87;25.43;;;0.80;99.90;;;;;;5070870;28;20225;-49
2023/03/06 06:35:26;;;;;;;47.53;22.30;;;0.80;99.90;;;;;;5071289;28;20192;-48
2023/03/06 06:37:53;;;;;;;48.50;26.47;;;0.90;99.90;;;;;;5058799;28;20210;-48
2023/03/06 06:40:23;;;;;;;46.73;23.77;;;0.90;99.90;;;;;;5051962;28;20208;-48
2023/03/06 06:42:52;;;;;;;48.33;23.37;;;0.90;99.90;;;;;;5051405;28;20695;-48
2023/03/06 06:45:19;;;;;;;46.57;22.80;;;1.00;99.90;;;;;;5065785;28;20198;-48
2023/03/06 06:47:49;;;;;;;52.27;23.97;;;1.00;99.90;;;;;;5064115;28;20233;-48
2023/03/06 06:50:16;;;;;;;48.50;23.27;;;1.10;99.90;;;;;;5060014;28;20210;-48
2023/03/06 06:52:43;;;;;;;49.00;24.83;;;1.10;99.90;;;;;;5067547;28;20271;-47
2023/03/06 06:55:12;;;;;;;49.30;26.53;;;1.20;99.90;;;;;;5065071;28;20957;-48
2023/03/06 06:57:40;;;;;;;60.20;25.83;;;1.10;99.90;;;;;;5063868;28;20672;-46
2023/03/06 07:00:12;;;;;;;48.30;25.63;;;1.20;99.90;;;;;;5060918;28;20203;-48
2023/03/06 07:02:39;;;;;;;45.53;24.27;;;1.20;99.90;;;;;;5067433;28;20205;-47
2023/03/06 07:05:07;;;;;;;48.57;23.17;;;1.20;99.90;;;;;;5068698;28;20255;-49
2023/03/06 07:07:37;;;;;;;50.70;27.30;;;1.30;99.90;;;;;;5062799;28;20200;-48
2023/03/06 07:10:06;;;;;;;58.47;26.83;;;1.30;99.90;;;;;;5065757;28;20684;-47
2023/03/06 07:12:33;;;;;;;55.30;25.43;;;1.40;99.90;;;;;;5052181;28;20290;-48
2023/03/06 07:15:00;;;;;;;58.90;26.23;;;1.40;99.90;;;;;;5063861;28;20629;-48
2023/03/06 07:17:29;;;;;;;53.90;24.90;;;1.40;99.90;;;;;;5067896;28;20202;-49
2023/03/06 07:19:56;;;;;;;57.27;26.37;;;1.40;99.90;;;;;;5070564;28;20224;-48
2023/03/06 07:22:23;;;;;;;55.40;25.70;;;1.40;99.90;;;;;;5073135;28;20202;-49
2023/03/06 07:24:50;;;;;;;52.33;27.03;;;1.50;99.90;;;;;;5074686;28;20265;-48
2023/03/06 07:27:17;;;;;;;47.23;25.63;;;1.50;99.90;;;;;;5076678;28;20190;-47
2023/03/06 07:29:44;;;;;;;49.83;24.97;;;1.50;99.90;;;;;;5054265;28;20232;-47
2023/03/06 07:32:11;;;;;;;51.20;24.40;;;1.50;99.90;;;;;;5054505;28;20261;-48
2023/03/06 07:34:40;;;;;;;48.57;25.10;;;1.60;99.90;;;;;;5054621;28;20226;-47
2023/03/06 07:37:07;;;;;;;50.70;25.60;;;1.60;99.90;;;;;;5054751;28;20212;-47
2023/03/06 07:39:34;;;;;;;48.97;23.27;;;1.60;99.90;;;;;;5054495;28;20715;-49
2023/03/06 07:42:01;;;;;;;46.43;23.23;;;1.60;99.90;;;;;;5054339;28;20205;-47
2023/03/06 07:44:28;;;;;;;55.20;25.73;;;1.70;99.90;;;;;;5054140;28;20199;-48
2023/03/06 07:46:55;;;;;;;48.57;24.47;;;1.70;99.90;;;;;;5054456;28;20208;-49
2023/03/06 07:49:22;;;;;;;49.53;25.07;;;1.70;99.90;;;;;;5054257;28;20230;-49
2023/03/06 07:51:50;;;;;;;46.63;24.77;;;1.80;99.90;;;;;;5054211;28;20202;-47
2023/03/06 07:54:17;;;;;;;42.37;24.67;;;1.80;99.90;;;;;;5068364;28;20214;-49
2023/03/06 07:56:44;;;;;;;54.27;25.17;;;1.80;99.90;;;;;;5074225;28;20271;-47
2023/03/06 07:59:11;;;;;;;48.83;23.93;;;1.80;99.90;;;;;;5069880;28;20271;-47
2023/03/06 08:01:39;;;;;;;52.20;25.73;;;1.80;99.90;;;;;;5072488;28;20198;-48
2023/03/06 08:04:06;;;;;;;44.53;24.47;;;1.90;99.90;;;;;;5069093;28;20202;-48
2023/03/06 08:06:33;;;;;;;53.83;26.53;;;1.90;99.90;;;;;;5063179;28;20263;-48
2023/03/06 08:09:02;;;;;;;48.87;23.63;;;2.00;99.90;;;;;;5063544;28;20258;-48
2023/03/06 08:11:30;;;;;;;52.93;26.27;;;2.10;99.90;;;;;;5070331;28;20206;-47
2023/03/06 08:13:58;;;;;;;50.77;24.17;;;2.10;99.90;;;;;;5067751;28;20233;-48
2023/03/06 08:16:27;;;;;;;48.23;23.33;;;2.10;99.90;;;;;;5071354;28;20251;-48
2023/03/06 08:18:54;;;;;;;54.10;24.23;;;2.20;99.90;;;;;;5050212;28;20276;-49
2023/03/06 08:21:23;;;;;;;53.03;26.10;;;2.30;99.90;;;;;;5058325;28;20260;-47
2023/03/06 08:23:51;;;;;;;60.30;24.47;;;2.40;99.90;;;;;;5055832;28;20306;-49
2023/03/06 08:26:21;;;;;;;53.33;24.20;;;2.40;99.90;;;;;;5053474;28;20212;-46
2023/03/06 08:28:50;;;;;;;52.63;24.67;;;2.40;99.90;;;;;;5061697;28;20223;-48
2023/03/06 08:31:25;;;;;;;48.57;24.27;;;2.50;99.90;;;;;;5054872;28;20203;-48
2023/03/06 08:33:53;;;;;;;48.87;24.80;;;2.50;99.90;;;;;;5050077;28;20303;-47
2023/03/06 08:36:20;;;;;;;50.60;25.47;;;2.60;99.90;;;;;;5052520;28;20204;-46
2023/03/06 08:38:47;;;;;;;51.93;25.27;;;2.70;99.90;;;;;;5053601;28;20972;-49
2023/03/06 08:41:14;;;;;;;49.03;26.57;;;2.70;99.90;;;;;;5054511;28;20210;-49
2023/03/06 08:43:43;;;;;;;55.07;26.77;;;2.80;99.90;;;;;;5052108;28;20677;-47
2023/03/06 08:46:10;;;;;;;51.77;24.30;;;2.90;99.90;;;;;;5052258;28;20971;-47
2023/03/06 08:48:37;;;;;;;49.33;24.73;;;3.00;99.90;;;;;;5056802;28;20222;-48
2023/03/06 08:51:05;;;;;;;43.87;22.90;;;3.10;99.90;;;;;;5052771;28;20284;-47
2023/03/06 08:53:32;;;;;;;47.33;25.87;;;3.20;99.90;;;;;;5055834;28;20262;-47
2023/03/06 08:55:59;;;;;;;52.20;25.13;;;3.40;99.90;;;;;;5049109;28;20209;-47
2023/03/06 08:58:26;;;;;;;48.37;23.77;;;3.60;99.90;;;;;;5050814;28;20220;-47
2023/03/06 09:00:55;;;;;;;47.63;25.27;;;3.60;99.90;;;;;;5056014;28;20203;-49
2023/03/06 09:03:22;;;;;;;54.43;24.97;;;3.60;99.90;;;;;;5052922;28;20255;-47
2023/03/06 09:05:49;;;;;;;44.47;22.00;;;3.60;99.90;;;;;;5050413;28;20204;-47
2023/03/06 09:08:17;;;;;;;60.90;24.30;;;3.60;99.90;;;;;;5052502;28;20726;-48
2023/03/06 09:10:46;;;;;;;38.57;22.97;;;3.60;99.90;;;;;;5052343;28;20196;-46
2023/03/06 09:13:13;;;;;;;46.70;23.57;;;3.60;99.90;;;;;;5051346;28;20264;-48
2023/03/06 09:15:40;;;;;;;49.57;24.00;;;3.60;99.90;;;;;;5051005;28;20223;-46
2023/03/06 09:18:08;;;;;;;44.73;24.67;;;3.50;99.90;;;;;;5049630;28;20276;-49
2023/03/06 09:20:35;;;;;;;44.80;24.87;;;3.70;99.90;;;;;;5061607;28;20218;-49
2023/03/06 09:23:02;;;;;;;47.57;24.03;;;3.80;99.90;;;;;;5056502;28;20203;-47
2023/03/06 09:25:29;;;;;;;48.97;24.80;;;3.90;99.90;;;;;;5057090;28;20204;-48
2023/03/06 09:27:56;;;;;;;50.97;25.07;;;3.90;99.90;;;;;;5071212;28;20289;-47
2023/03/06 09:30:23;;;;;;;39.53;22.37;;;3.90;99.90;;;;;;5051968;28;20204;-48
2023/03/06 09:32:50;;;;;;;40.97;22.30;;;4.10;99.90;;;;;;5060143;28;20206;-47
2023/03/06 09:35:19;;;;;;;41.73;22.33;;;4.20;99.90;;;;;;5066262;28;20712;-47
2023/03/06 09:37:48;;;;;;;51.20;26.07;;;4.10;99.90;;;;;;5059855;28;20664;-50
2023/03/06 09:40:19;;;;;;;54.50;28.00;;;4.10;99.90;;;;;;5064805;28;20253;-49
2023/03/06 09:42:49;;;;;;;52.60;26.87;;;4.00;99.90;;;;;;5065148;28;20203;-48
2023/03/06 09:45:19;;;;;;;48.67;24.70;;;3.80;99.90;;;;;;5060562;28;20249;-50
2023/03/06 09:47:56;;;;;;;48.43;23.73;;;3.80;99.90;;;;;;5060855;28;20217;-49
2023/03/06 09:50:37;;;;;;;53.33;27.73;;;3.70;99.90;;;;;;5069924;28;20207;-48
2023/03/06 09:53:28;;;;;;;53.67;25.47;;;3.80;99.90;;;;;;5064427;28;20656;-48
2023/03/06 09:56:01;;;;;;;49.10;25.23;;;3.80;99.90;;;;;;5066534;28;20726;-48
2023/03/06 09:58:30;;;;;;;46.17;24.33;;;3.70;99.90;;;;;;5058829;28;20246;-48
2023/03/06 10:01:01;;;;;;;53.90;27.07;;;3.70;99.90;;;;;;5050060;28;20262;-47
2023/03/06 10:03:32;;;;;;;44.00;24.67;;;3.70;99.90;;;;;;5050755;28;20204;-48
2023/03/06 10:06:08;;;;;;;49.13;23.43;;;3.70;99.90;;;;;;5047719;28;20207;-49
2023/03/06 10:08:46;;;;;;;46.77;22.67;;;3.70;99.90;;;;;;5053178;28;20703;-48
2023/03/06 10:11:18;;;;;;;43.50;23.20;;;3.70;99.90;;;;;;5054893;28;20207;-48
2023/03/06 10:13:49;;;;;;;50.47;23.90;;;3.70;99.90;;;;;;5062051;28;20215;-49
2023/03/06 10:16:25;;;;;;;47.33;22.70;;;3.80;99.90;;;;;;5063414;28;20619;-48
2023/03/06 10:18:53;;;;;;;42.63;22.60;;;3.90;99.90;;;;;;5058708;28;20228;-48
2023/03/06 10:21:33;;;;;;;41.70;23.37;;;4.00;99.90;;;;;;5050683;28;20204;-48
2023/03/06 10:24:09;;;;;;;44.83;24.13;;;4.10;99.90;;;;;;5049346;28;20235;-48
2023/03/06 10:26:43;;;;;;;46.13;25.37;;;4.20;99.90;;;;;;5048179;28;20209;-46
2023/03/06 10:29:30;;;;;;;51.63;23.23;;;4.40;99.90;;;;;;5046502;28;20307;-47
2023/03/06 10:32:09;;;;;;;35.57;19.90;;;4.60;99.90;;;;;;5046931;28;20265;-47
2023/03/06 10:34:39;;;;;;;47.77;24.23;;;4.70;99.90;;;;;;5050085;28;20300;-47
2023/03/06 10:37:17;;;;;;;41.07;20.63;;;4.80;99.90;;;;;;5046223;28;20199;-48
2023/03/06 10:39:45;;;;;;;40.63;21.47;;;4.70;99.90;;;;;;5050753;28;20326;-48
2023/03/06 10:42:12;;;;;;;41.30;20.70;;;4.70;99.90;;;;;;5048664;28;20204;-48
2023/03/06 10:44:39;;;;;;;33.80;20.27;;;4.90;99.90;;;;;;5049310;28;20290;-47
2023/03/06 10:47:28;;;;;;;33.87;18.17;;;5.00;99.90;;;;;;5054545;28;20204;-47
2023/03/06 10:50:00;;;;;;;32.87;18.03;;;5.10;99.90;;;;;;5067008;28;20288;-48
2023/03/06 10:52:31;;;;;;;36.03;18.03;;;5.30;99.90;;;;;;5067013;28;20211;-49
2023/03/06 10:55:25;;;;;;;32.50;16.53;;;5.30;99.90;;;;;;5056232;28;20219;-47
2023/03/06 10:57:53;;;;;;;29.10;16.43;;;5.50;99.90;;;;;;5056715;28;20221;-46
2023/03/06 11:00:29;;;;;;;27.43;16.67;;;5.60;99.90;;;;;;5051663;28;20666;-47
2023/03/06 11:03:17;;;;;;;29.43;16.83;;;5.60;99.90;;;;;;5057628;28;20199;-48
2023/03/06 11:06:00;;;;;;;35.13;16.57;;;5.70;99.90;;;;;;5068317;28;20205;-47
2023/03/06 11:08:29;;;;;;;31.30;15.57;;;5.70;99.90;;;;;;5058175;28;20230;-48
2023/03/06 11:11:02;;;;;;;24.73;13.83;;;5.70;99.90;;;;;;5054477;28;20200;-48
2023/03/06 11:13:32;;;;;;;26.47;14.23;;;5.70;99.90;;;;;;5064347;28;20295;-47
2023/03/06 11:16:05;;;;;;;31.07;15.07;;;5.70;99.90;;;;;;5052456;28;20224;-48
2023/03/06 11:18:38;;;;;;;28.77;15.20;;;5.80;99.90;;;;;;5065392;28;20223;-47
2023/03/06 11:21:23;;;;;;;25.33;13.90;;;6.00;99.90;;;;;;5063370;28;20208;-48
2023/03/06 11:23:54;;;;;;;26.97;16.27;;;6.00;99.90;;;;;;5068358;28;20331;-48
2023/03/06 11:26:39;;;;;;;23.43;15.13;;;6.00;99.90;;;;;;5071389;28;20257;-47
2023/03/06 11:29:34;;;;;;;26.87;17.90;;;6.10;99.90;;;;;;5054292;28;20224;-48
2023/03/06 11:32:08;;;;;;;26.33;17.57;;;6.10;99.90;;;;;;5057596;28;20201;-48
2023/03/06 11:34:41;;;;;;;28.87;14.97;;;6.10;99.90;;;;;;5062261;28;20214;-49
2023/03/06 11:37:13;;;;;;;23.53;14.87;;;6.30;99.90;;;;;;5074600;28;20680;-48
2023/03/06 11:39:46;;;;;;;26.30;14.90;;;6.40;99.90;;;;;;5060948;28;20703;-48
2023/03/06 11:42:20;;;;;;;21.10;12.07;;;6.50;99.90;;;;;;5070995;28;20200;-47
2023/03/06 11:44:57;;;;;;;16.03;11.63;;;6.60;99.90;;;;;;5068456;28;20208;-48
2023/03/06 11:47:28;;;;;;;21.30;13.07;;;6.70;99.90;;;;;;5063926;28;20628;-48
2023/03/06 11:50:08;;;;;;;16.50;11.93;;;6.70;99.90;;;;;;5054753;28;20230;-46
2023/03/06 11:52:44;;;;;;;19.00;11.07;;;6.70;99.90;;;;;;5052840;28;20296;-48
2023/03/06 11:55:17;;;;;;;17.60;10.80;;;6.70;99.90;;;;;;5052830;28;20222;-47
2023/03/06 11:57:55;;;;;;;17.27;10.17;;;6.70;99.90;;;;;;5054191;28;20199;-48
2023/03/06 12:00:39;;;;;;;17.87;11.00;;;6.70;99.90;;;;;;5050642;28;20210;-47
2023/03/06 12:03:29;;;;;;;15.50;9.43;;;6.50;99.90;;;;;;5056182;28;20203;-48
2023/03/06 12:06:03;;;;;;;19.27;9.50;;;6.50;99.90;;;;;;5053818;28;20219;-48
2023/03/06 12:08:47;;;;;;;18.17;11.23;;;6.50;99.90;;;;;;5049286;28;20222;-46
2023/03/06 12:11:20;;;;;;;17.73;11.90;;;6.30;99.90;;;;;;5052501;28;20199;-47
2023/03/06 12:14:03;;;;;;;14.10;10.37;;;6.30;99.90;;;;;;5049406;28;20224;-47
2023/03/06 12:17:01;;;;;;;18.93;11.03;;;6.40;99.90;;;;;;5051180;28;20195;-47
2023/03/06 12:19:37;;;;;;;16.97;10.07;;;6.30;99.90;;;;;;5036810;28;20222;-47
2023/03/06 12:22:19;;;;;;;18.93;9.27;;;6.30;99.90;;;;;;5052368;28;20244;-47
2023/03/06 12:25:06;;;;;;;15.60;9.57;;;6.40;99.90;;;;;;5061314;28;20200;-46
2023/03/06 12:27:42;;;;;;;15.03;9.87;;;6.30;99.90;;;;;;5051318;28;20237;-49
2023/03/06 12:30:43;;;;;;;16.07;10.23;;;6.30;99.90;;;;;;5051157;28;20217;-47
2023/03/06 12:33:19;;;;;;;15.10;9.10;;;6.30;99.90;;;;;;5052707;28;20203;-48
2023/03/06 12:36:13;;;;;;;18.70;9.57;;;6.30;99.90;;;;;;5055545;28;20223;-47
2023/03/06 12:39:00;;;;;;;15.60;9.10;;;6.40;99.90;;;;;;5063643;28;20227;-47
2023/03/06 12:41:47;;;;;;;11.03;8.50;;;6.50;99.90;;;;;;5066638;28;20200;-47
2023/03/06 12:44:41;;;;;;;12.27;8.50;;;6.70;99.90;;;;;;5057123;28;20198;-47
2023/03/06 12:47:11;;;;;;;13.87;8.63;;;6.70;99.90;;;;;;5052313;28;20204;-48
2023/03/06 12:49:42;;;;;;;10.43;8.47;;;6.70;99.90;;;;;;5050597;28;20228;-45
2023/03/06 12:52:16;;;;;;;12.57;8.03;;;6.80;99.90;;;;;;5055850;28;20199;-46